's Gravenwezel heliport

EBAS · Antwerpen, Flanders, 比利时

METAR的历史 EBAS · 's Gravenwezel heliport

下面你可以看到过去几天的METARs。 选择年份以浏览从2007年开始的旧METAR。

2024年7月17日

时间 代码 天气 温度 能见度 天花板 METAR/SPECI
12:20
V
21 °C 10 km+ - 230° 230° 7 kt METAR EBAW 171020Z 23007KT 190V260 9999 SCT026 21/14 Q1021 NOSIG
11:50
V
21 °C 10 km+ - 220° 220° 7 kt METAR EBAW 170950Z 22007KT 160V270 9999 FEW020 21/15 Q1021 NOSIG
11:20
V
21 °C 10 km+ - 230° 230° 7 kt METAR EBAW 170920Z 23007KT 190V280 9999 FEW020 21/14 Q1021 NOSIG
10:50
V
20 °C 10 km+ - 230° 230° 6 kt METAR EBAW 170850Z 23006KT 190V260 9999 FEW020 20/15 Q1020 NOSIG
10:20
V
20 °C 10 km+ - 230° 230° 5 kt METAR EBAW 170820Z 23005KT 190V280 9999 FEW011 20/15 Q1020 NOSIG
09:50
V
19 °C 10 km+ - 200° 200° 7 kt METAR EBAW 170750Z 20007KT 9999 FEW011 19/16 Q1020 NOSIG
09:20
V
18 °C 10 km+ - 210° 210° 7 kt METAR EBAW 170720Z 21007KT 9999 SCT011 18/15 Q1020 NOSIG
08:50
I
18 °C 10 km+ 800 ft 210° 210° 5 kt METAR EBAW 170650Z 21005KT 170V230 9999 BKN008 18/16 Q1020 BECMG FEW009
08:20
I
17 °C 9 km 700 ft 200° 200° 5 kt METAR EBAW 170620Z 20005KT 9000 BKN007 17/15 Q1019 BECMG FEW007
07:50
I
17 °C 9 km 700 ft 220° 220° 5 kt METAR EBAW 170550Z 22005KT 9000 BKN007 17/15 Q1019 BECMG FEW007
07:20
I
16 °C 8 km 700 ft 210° 210° 5 kt METAR EBAW 170520Z 21005KT 8000 BKN007 16/15 Q1019 TEMPO FEW007
06:50
V
16 °C 10 km+ - 220° 220° 5 kt METAR EBAW 170450Z 22005KT 9999 SCT007 16/15 Q1018 TEMPO BKN007
06:20
V
16 °C 10 km+ - 250° 250° 5 kt METAR EBAW 170420Z AUTO 25005KT 9999 // FEW007/// 16/15 Q1018
05:50
V
16 °C 10 km+ - 250° 250° 5 kt METAR EBAW 170350Z AUTO 25005KT CAVOK 16/15 Q1018
05:20
L
16 °C 10 km+ - 250° 250° 6 kt METAR EBAW 170320Z AUTO 25006KT 9999 // VV/// 16/14 Q1017
04:50
L
16 °C 10 km+ - 240° 240° 6 kt METAR EBAW 170250Z AUTO 24006KT 9999 // VV/// 16/14 Q1017
04:20
L
16 °C 10 km+ - 240° 240° 6 kt METAR EBAW 170220Z AUTO 24006KT 9999 // VV/// 16/14 Q1017
03:50
V
16 °C 10 km+ - 230° 230° 6 kt METAR EBAW 170150Z AUTO 23006KT 9999 // FEW009/// SCT011/// 16/14 Q1017
03:20
M
16 °C 10 km+ 1.000 ft 230° 230° 5 kt METAR EBAW 170120Z AUTO 23005KT 9999 // OVC010/// 16/14 Q1017
02:50
L
16 °C 10 km+ - 240° 240° 8 kt METAR EBAW 170050Z AUTO 24008KT 9999 // VV/// 16/14 Q1016
02:20
L
16 °C 10 km+ - 240° 240° 7 kt METAR EBAW 170020Z AUTO 24007KT 9999 // VV/// 16/14 Q1016
01:50
L
17 °C 10 km+ - 240° 240° 7 kt METAR EBAW 162350Z AUTO 24007KT 9999 // VV/// 17/14 Q1016
01:20
M
17 °C 10 km+ 1.400 ft 240° 240° 8 kt METAR EBAW 162320Z AUTO 24008KT 9999 // BKN014/// 17/14 Q1016
00:50
M
17 °C 10 km+ 1.500 ft 240° 240° 9 kt METAR EBAW 162250Z AUTO 24009KT 200V260 9999 // OVC015/// 17/14 Q1016
00:20
M
17 °C 10 km+ 1.600 ft 230° 230° 10 kt METAR EBAW 162220Z AUTO 23010KT 9999 // OVC016/// 17/14 Q1015

2024年7月16日

时间 代码 天气 温度 能见度 天花板 METAR/SPECI
23:50
V
17 °C 10 km+ 4.800 ft 220° 220° 10 kt METAR EBAW 162150Z AUTO 22010KT 9999 // SCT042/// OVC048/// 17/14 Q1015
23:20
M
17 °C 10 km+ 1.600 ft 240° 240° 9 kt METAR EBAW 162120Z AUTO 24009KT 200V260 9999 -DZ OVC016/// 17/14 Q1015
22:50
V
17 °C 10 km+ - 230° 230° 9 kt METAR EBAW 162050Z 23009KT 9999 SCT017 17/14 Q1015 TEMPO BKN013
22:20
V
18 °C 10 km+ - 230° 230° 10 kt METAR EBAW 162020Z 23010KT 190V260 9999 SCT018 18/14 Q1015 NOSIG
21:50
V
18 °C 10 km+ - 230° 230° 11 kt METAR EBAW 161950Z 23011KT 200V260 9999 FEW020 18/14 Q1014 NOSIG
21:20
V
18 °C 10 km+ - 230° 230° 12 kt METAR EBAW 161920Z 23012KT 9999 FEW020 18/13 Q1014 NOSIG
20:50
V
18 °C 10 km+ - 240° 240° 11 kt METAR EBAW 161850Z 24011KT 210V270 9999 FEW025 18/13 Q1014 NOSIG
20:20
V
19 °C 10 km+ - 240° 240° 13 - 23 kt METAR EBAW 161820Z 24013G23KT 9999 FEW032 19/13 Q1013 NOSIG
19:50
V
19 °C 10 km+ - 240° 240° 12 kt METAR EBAW 161750Z 24012KT 200V260 9999 SCT032 19/13 Q1013 NOSIG
19:20
V
20 °C 10 km+ - 240° 240° 15 kt METAR EBAW 161720Z 24015KT 9999 SCT032 20/13 Q1013 NOSIG
18:50
V
20 °C 10 km+ 3.800 ft 230° 230° 12 kt METAR EBAW 161650Z 23012KT 9999 FEW032TCU BKN038 20/13 Q1012 NOSIG
18:20
V
20 °C 10 km+ - 220° 220° 12 kt METAR EBAW 161620Z 22012KT 190V250 9999 FEW043 20/14 Q1012 NOSIG
17:50
V
20 °C 10 km+ - 210° 210° 13 kt METAR EBAW 161550Z 21013KT 9999 FEW043 20/14 Q1012 NOSIG
17:20
V
21 °C 10 km+ - 210° 210° 12 kt METAR EBAW 161520Z 21012KT 170V240 9999 FEW043 21/15 Q1012 NOSIG
16:50
V
20 °C 10 km+ - 200° 200° 9 kt METAR EBAW 161450Z 20009KT 170V240 9999 SCT028TCU 20/14 Q1012 NOSIG
16:20
V
21 °C 10 km+ - 220° 220° 12 kt METAR EBAW 161420Z 22012KT 190V250 9999 SCT028TCU 21/15 Q1012 TEMPO 4000 SHRA
15:50
V
20 °C 10 km+ - 220° 220° 11 kt METAR EBAW 161350Z 22011KT 190V250 9999 VCSH SCT028 20/14 Q1011 TEMPO 4000 SHRA
15:20
V
19 °C 10 km+ - 230° 230° 11 kt METAR EBAW 161320Z 23011KT 190V260 9999 FEW021 19/14 Q1011 NOSIG
14:50
V
19 °C 10 km+ - 220° 220° 10 kt METAR EBAW 161250Z 22010KT 190V250 9999 FEW021 19/16 Q1011 NOSIG
14:20
V
17 °C 10 km+ - 220° 220° 9 kt METAR EBAW 161220Z 22009KT 180V250 9999 -SHRA FEW021CB 17/15 Q1011 NOSIG
13:50
V
16 °C 8 km - 230° 230° 12 kt METAR EBAW 161150Z 23012KT 8000 -SHRA SCT021CB 16/14 Q1011 TEMPO 21015G25KT 2500 +SHRA
13:20
M
18 °C 7 km - 210° 210° 9 kt METAR EBAW 161120Z 21009KT 7000 -SHRA SCT021CB 18/15 Q1011 TEMPO 21015G25KT 2500 +SHRA
12:50
V
19 °C 10 km+ - 220° 220° 11 kt METAR EBAW 161050Z 22011KT 170V250 9999 -SHRA SCT021CB 19/13 Q1011 TEMPO 21015G25KT 3000 SHRA
12:20
V
19 °C 10 km+ - 210° 210° 11 kt METAR EBAW 161020Z 21011KT 9999 -SHRA SCT021TCU 19/13 Q1010 TEMPO 4000 SHRA
11:50
V
19 °C 10 km+ - 210° 210° 11 kt METAR EBAW 160950Z 21011KT 170V240 9999 -SHRA SCT021TCU 19/13 Q1010 TEMPO 4000 SHRA
11:20
V
20 °C 10 km+ - 210° 210° 12 kt METAR EBAW 160920Z 21012KT 170V240 9999 SCT021TCU 20/13 Q1010 TEMPO 4000 SHRA
10:50
V
18 °C 10 km+ - 210° 210° 10 kt METAR EBAW 160850Z 21010KT 9999 SCT021 18/13 Q1010 TEMPO 4000 SHRA
10:20
V
18 °C 10 km+ - 200° 200° 10 kt METAR EBAW 160820Z 20010KT 170V230 9999 SCT021 18/14 Q1010 NOSIG
09:50
V
18 °C 10 km+ - 210° 210° 11 kt METAR EBAW 160750Z 21011KT 9999 SCT021 18/14 Q1010 NOSIG
09:20
V
18 °C 10 km+ - 210° 210° 11 kt METAR EBAW 160720Z 21011KT 180V240 9999 SCT021 18/14 Q1010 NOSIG
08:50
V
18 °C 10 km+ - 200° 200° 9 kt METAR EBAW 160650Z 20009KT 9999 SCT032 18/13 Q1010 NOSIG
08:20
V
18 °C 10 km+ - 210° 210° 10 kt METAR EBAW 160620Z 21010KT CAVOK 18/14 Q1010 NOSIG
07:50
V
17 °C 10 km+ - 210° 210° 10 kt METAR EBAW 160550Z 21010KT CAVOK 17/14 Q1010 NOSIG
07:20
V
16 °C 10 km+ - 200° 200° 9 kt METAR EBAW 160520Z 20009KT CAVOK 16/14 Q1010 NOSIG
06:50
V
16 °C 10 km+ - 210° 210° 9 kt METAR EBAW 160450Z 21009KT 180V240 CAVOK 16/13 Q1009 NOSIG
06:20
L
16 °C 10 km+ - 220° 220° 8 kt METAR EBAW 160420Z AUTO 22008KT 9999 // VV/// 16/13 Q1009
05:50
L
16 °C 10 km+ - 210° 210° 7 kt METAR EBAW 160350Z AUTO 21007KT 9999 // VV/// 16/13 Q1009
05:20
L
16 °C 10 km+ - 210° 210° 9 kt METAR EBAW 160320Z AUTO 21009KT 9999 // VV/// 16/13 Q1009
04:50
L
17 °C 10 km+ - 220° 220° 10 kt METAR EBAW 160250Z AUTO 22010KT 9999 // VV/// 17/14 Q1008
04:20
L
17 °C 10 km+ - 220° 220° 10 kt METAR EBAW 160220Z AUTO 22010KT 180V250 9999 // VV/// 17/14 Q1008
03:50
L
17 °C 10 km+ - 230° 230° 10 kt METAR EBAW 160150Z AUTO 23010KT 9999 // VV/// 17/14 Q1008
03:20
L
18 °C 10 km+ - 220° 220° 11 kt METAR EBAW 160120Z AUTO 22011KT 9999 // VV/// 18/16 Q1007
02:50
L
18 °C 10 km+ - 210° 210° 8 kt METAR EBAW 160050Z AUTO 21008KT 180V240 9999 // VV/// 18/16 Q1007
02:20
L
18 °C 10 km+ - 220° 220° 8 kt METAR EBAW 160020Z AUTO 22008KT 190V250 9999 // VV/// 18/16 Q1007
01:50
V
19 °C 10 km+ - 210° 210° 8 kt METAR EBAW 152350Z AUTO 21008KT CAVOK 19/17 Q1007
01:20
L
19 °C 10 km+ - 200° 200° 7 kt METAR EBAW 152320Z AUTO 20007KT 9999 // VV/// 19/17 Q1007
00:50
V
18 °C 10 km+ - 160° 160° 5 kt METAR EBAW 152250Z AUTO 16005KT CAVOK 18/16 Q1007
00:20
V
18 °C 10 km+ - 150° 150° 6 kt METAR EBAW 152220Z AUTO 15006KT 120V190 CAVOK 18/16 Q1007

2024年7月15日

时间 代码 天气 温度 能见度 天花板 METAR/SPECI
23:50
V
17 °C 10 km+ - 130° 130° 4 kt METAR EBAW 152150Z AUTO 13004KT CAVOK 17/16 Q1006
23:20
V
18 °C 10 km+ - 120° 120° 3 kt METAR EBAW 152120Z AUTO 12003KT 090V200 CAVOK 18/16 Q1006
22:50
V
18 °C 10 km+ - 360° 360° 0 kt METAR EBAW 152050Z 00000KT 9999 FEW040 18/16 Q1006 NOSIG
22:20
V
18 °C 10 km+ - 050° 050° 4 kt METAR EBAW 152020Z 05004KT 360V070 9999 FEW040CB 18/16 Q1006 RESHRA RETSRA NOSIG
21:50
I
18 °C 3 km 4.000 ft Var Var 4 kt METAR EBAW 151950Z VRB04KT 3000 TSRA SCT012 BKN040CB 18/16 Q1008 BECMG 9999 NSW
21:20
V
20 °C 10 km+ - 310° 310° 4 kt METAR EBAW 151920Z 31004KT 280V050 9999 -SHRA FEW012 FEW040CB 20/17 Q1007 RESHRA TEMPO FM1900 4000 TSRA
20:50
V
20 °C 10 km+ - Var Var 2 kt METAR EBAW 151850Z VRB02KT 9999 SHRA FEW020 SCT045CB 20/15 Q1007 TEMPO FM1900 4000 TSRA
20:20
V
21 °C 10 km+ - 020° 020° 3 kt METAR EBAW 151820Z 02003KT 340V050 9999 -RA FEW040 21/15 Q1007 TEMPO FM1900 4000 TSRA
19:50
V
22 °C 10 km+ - 030° 030° 4 kt METAR EBAW 151750Z 03004KT 9999 -RA NSC 22/14 Q1007 NOSIG
19:20
V
22 °C 10 km+ - 050° 050° 5 kt METAR EBAW 151720Z 05005KT 9999 FEW040 22/14 Q1007 NOSIG
18:50
V
23 °C 10 km+ - 010° 010° 3 kt METAR EBAW 151650Z 01003KT 330V040 CAVOK 23/14 Q1007 NOSIG
18:20
V
23 °C 10 km+ - Var Var 1 kt METAR EBAW 151620Z VRB01KT CAVOK 23/15 Q1008 NOSIG
17:50
V
23 °C 10 km+ - 100° 100° 3 kt METAR EBAW 151550Z 10003KT CAVOK 23/14 Q1008 NOSIG
17:20
V
23 °C 10 km+ - 100° 100° 5 kt METAR EBAW 151520Z 10005KT CAVOK 23/14 Q1008 NOSIG
16:50
V
24 °C 10 km+ - 110° 110° 6 kt METAR EBAW 151450Z 11006KT CAVOK 24/14 Q1009 NOSIG
16:20
V
25 °C 10 km+ - 110° 110° 7 kt METAR EBAW 151420Z 11007KT CAVOK 25/14 Q1009 NOSIG
15:50
V
25 °C 10 km+ - 110° 110° 8 kt METAR EBAW 151350Z 11008KT 080V140 CAVOK 25/13 Q1009 NOSIG
15:20
V
25 °C 10 km+ - 090° 090° 9 kt METAR EBAW 151320Z 09009KT CAVOK 25/14 Q1009 NOSIG
14:50
V
24 °C 10 km+ - 100° 100° 9 kt METAR EBAW 151250Z 10009KT CAVOK 24/14 Q1010 NOSIG
14:20
V
24 °C 10 km+ - 120° 120° 8 kt METAR EBAW 151220Z 12008KT 080V150 CAVOK 24/12 Q1010 NOSIG
13:50
V
23 °C 10 km+ - 120° 120° 4 kt METAR EBAW 151150Z 12004KT 030V180 CAVOK 23/11 Q1010 NOSIG
13:20
V
24 °C 10 km+ - 110° 110° 7 kt METAR EBAW 151120Z 11007KT 080V170 CAVOK 24/11 Q1010 NOSIG
12:50
V
23 °C 10 km+ - 120° 120° 7 kt METAR EBAW 151050Z 12007KT 090V170 CAVOK 23/12 Q1011 NOSIG
12:20
V
23 °C 10 km+ - 120° 120° 6 kt METAR EBAW 151020Z 12006KT 080V150 CAVOK 23/13 Q1011 NOSIG
11:50
V
22 °C 10 km+ - 140° 140° 5 kt METAR EBAW 150950Z 14005KT 090V200 CAVOK 22/12 Q1011 NOSIG
11:20
V
22 °C 10 km+ - 130° 130° 5 kt METAR EBAW 150920Z 13005KT 100V170 CAVOK 22/13 Q1012 NOSIG
10:50
V
21 °C 10 km+ - 140° 140° 5 kt METAR EBAW 150850Z 14005KT CAVOK 21/13 Q1012 NOSIG
10:20
V
22 °C 10 km+ - 120° 120° 4 kt METAR EBAW 150820Z 12004KT 090V180 CAVOK 22/14 Q1012 NOSIG
09:50
V
21 °C 10 km+ - 120° 120° 4 kt METAR EBAW 150750Z 12004KT 080V180 CAVOK 21/14 Q1012 NOSIG
09:20
V
20 °C 10 km+ - 140° 140° 4 kt METAR EBAW 150720Z 14004KT 110V170 CAVOK 20/14 Q1012 NOSIG
08:50
V
18 °C 10 km+ - 120° 120° 4 kt METAR EBAW 150650Z 12004KT CAVOK 18/14 Q1012 NOSIG
08:20
V
17 °C 10 km+ - 130° 130° 3 kt METAR EBAW 150620Z 13003KT CAVOK 17/14 Q1012 NOSIG
07:50
V
15 °C 10 km+ - Var Var 2 kt METAR EBAW 150550Z VRB02KT CAVOK 15/14 Q1012 NOSIG
报告变更